• Join FlightAware (Why Join?)
  • Login
  • US Flag 
03:03AM EST


 

Airport Tracker/Info


-or-


 

Live Flight TrackerFlight Track Log ✈ N449ND ✈ 15-Apr-2014 ✈ KFPR - KFPR

Flight Track Log - Related Links

Times and Time Zones

All times are in EDT time to prevent confusion due to time zone crossing. See the N449ND flight status page for this flight to view local times or setup timezone preferences in your user account.

Time Position Orientation Groundspeed Altitude Reporting Facility
EDT Latitude Longitude Course Direction KTS MPH feet Rate Location/Type
04:16PM 27.4753 -80.3517 170° South 90 104 700  Level Miami Center
04:17PM 27.4586 -80.3511 178° South 78 90 1,200 420 Climbing Miami Center
04:18PM 27.4400 -80.3483 172° South 73 84 1,600 300 Climbing Miami Center
04:19PM 27.4294 -80.3572 217° Southwest 58 67 1,900 420 Climbing Miami Center
04:20PM 27.4225 -80.3803 251° West 66 76 2,500 420 Climbing Miami Center
04:21PM 27.4956 -80.3723 170° South  Level FlightAware Approximate
04:21PM 27.4200 -80.4014 262° West 71 82 2,800  Level Miami Center
04:22PM 27.4953 -80.3722 170° South  Level FlightAware Approximate
04:22PM 27.4256 -80.4250 285° West 71 82 3,100  Level Miami Center
04:23PM 27.4469 -80.4069 37° Northeast 97 112 3,100  Level Miami Center
04:24PM 27.4478 -80.3742 88° East 91 105 3,100 -60 Level Miami Center
04:25PM 27.4550 -80.3322 79° East 117 135 3,000  Descending Miami Center
04:26PM 27.4786 -80.3025 48° Northeast 117 135 3,100  Climbing Miami Center
04:27PM 27.5022 -80.2728 48° Northeast 124 143 3,000 -60 Descending Miami Center
04:28PM 27.5236 -80.2525 40° Northeast 118 136 3,000  Level Miami Center
04:29PM 27.5267 -80.2197 84° East 99 114 3,000  Level Miami Center
04:30PM 27.5100 -80.2075 147° Southeast 66 76 3,000  Level Miami Center
04:31PM 27.5053 -80.2308 257° West 51 59 3,000  Level Miami Center
04:32PM 27.5261 -80.2408 337° Northwest 69 79 3,000  Level Miami Center
04:33PM 27.5556 -80.2253 25° Northeast 94 108 3,000 -240 Level Miami Center
04:34PM 27.5761 -80.2375 332° Northwest 96 110 2,600 -540 Descending Miami Center
04:35PM 27.5531 -80.2417 189° South 63 72 2,000 -300 Descending Miami Center
04:36PM 27.5700 -80.2328 25° Northeast 19 22 2,000 -60 Level Miami Center
04:37PM 27.5861 -80.2567 307° West 77 89 1,900 -60 Descending Miami Center
04:38PM 27.6022 -80.2806 307° West 96 110 1,900 -60 Level Miami Center
04:39PM 27.6122 -80.3089 292° West 95 109 1,800 -120 Descending Miami Center
04:40PM 27.6219 -80.3372 291° West 95 109 1,700 -300 Descending Miami Center
04:41PM 27.6317 -80.3611 295° West 90 104 1,300 -300 Descending Miami Center
04:42PM 27.6417 -80.3825 298° West 90 104 1,200 120 Descending Miami Center
04:43PM 27.6494 -80.4086 289° West 84 97 1,600 420 Climbing Miami Center
04:44PM 27.6467 -80.4364 264° West 84 97 2,100 480 Climbing Miami Center
04:45PM 27.6503 -80.4600 280° West 84 97 2,600 420 Climbing Miami Center
04:46PM 27.6519 -80.4789 276° West 77 89 3,000 300 Climbing Miami Center
04:47PM 27.6744 -80.4867 343° North 69 79 3,200  Climbing Miami Center
04:48PM 27.7122 -80.4783 11° North 116 133 3,100 -120 Descending Miami Center
04:49PM 27.7478 -80.4794 358° North 124 143 3,000 -60 Descending Miami Center
04:50PM 27.7769 -80.4828 354° North 119 137 3,000  Level Miami Center
04:51PM 27.8042 -80.4814 North 109 125 3,000  Level Miami Center
04:52PM 27.7983 -80.4578 106° East 55 63 3,100  Climbing Miami Center
04:53PM 27.7753 -80.4639 193° South 60 69 3,000 -60 Descending Miami Center
04:54PM 27.7522 -80.4750 203° Southwest 90 104 3,000  Level Miami Center
04:55PM 27.7331 -80.4839 202° Southwest 90 104 3,100  Climbing Miami Center
04:56PM 27.7161 -80.4925 204° Southwest 85 98 3,100 -60 Level Miami Center
04:57PM 27.6972 -80.5014 203° Southwest 80 92 3,000 -180 Descending Miami Center
04:58PM 27.6781 -80.5150 212° Southwest 75 86 2,800 -300 Descending Miami Center
04:59PM 27.6589 -80.5236 202° Southwest 75 86 2,400 -420 Descending Miami Center
05:00PM 27.6381 -80.5322 200° South 75 86 2,000 -300 Descending Miami Center
05:01PM 27.6239 -80.5086 124° Southeast 70 81 1,900 -120 Descending Miami Center
05:02PM 27.6056 -80.4892 137° Southeast 88 101 1,800 -60 Descending Miami Center
05:03PM 27.5833 -80.4672 139° Southeast 94 108 1,800  Level Miami Center
05:04PM 27.5669 -80.4481 134° Southeast 89 102 1,800 -60 Level Miami Center
05:05PM 27.5528 -80.4336 138° Southeast 89 102 1,700 -420 Descending Miami Center
05:06PM 27.5364 -80.4192 142° Southeast 84 97 1,000 -480 Descending Miami Center
05:07PM 27.5222 -80.3997 129° Southeast 84 97 800 -300 Descending Miami Center
05:08PM 27.5019 -80.3781 137° Southeast 84 97 400  Descending Miami Center
05:09PM 27.4856 -80.3683 152° Southeast 78 90 800 420 Climbing Miami Center
05:10PM 27.4667 -80.3653 172° South 72 83 1,300 480 Climbing Miami Center
05:11PM 27.4481 -80.3600 166° South 72 83 1,800 660 Climbing Miami Center
05:12PM 27.4253 -80.3500 159° South 72 83 2,700 600 Climbing Miami Center
05:13PM 27.4069 -80.3356 145° Southeast 72 83 3,000 120 Climbing Miami Center
05:14PM 27.4225 -80.2986 65° Northeast 86 99 3,000  Level Miami Center
05:15PM 27.4378 -80.2708 58° Northeast 116 133 3,000  Level Miami Center
05:16PM 27.4572 -80.2386 56° Northeast 121 139 3,000 -240 Level Miami Center
05:17PM 27.4747 -80.2017 62° Northeast 121 139 2,600 -540 Descending Miami Center
05:18PM 27.4922 -80.1694 59° Northeast 121 139 2,000 -300 Descending Miami Center
05:19PM 27.5136 -80.1419 49° Northeast 121 139 2,100  Climbing Miami Center
05:20PM 27.5431 -80.1383 North 106 122 2,100  Level Miami Center
05:21PM 27.5592 -80.1575 313° West 87 100 2,100  Level Miami Center
05:22PM 27.5608 -80.1856 274° West 83 96 2,100 -60 Level Miami Center
05:23PM 27.5581 -80.2111 263° West 90 104 2,000 -300 Descending Miami Center
05:24PM 27.5492 -80.2319 244° Southwest 90 104 1,600 -480 Descending Miami Center
05:25PM 27.5403 -80.2553 247° West 90 104 1,100 -420 Descending Miami Center
05:26PM 27.5294 -80.2783 242° Southwest 90 104 800  Descending Miami Center
05:27PM 27.5206 -80.3014 247° West 90 104 1,200 120 Climbing Miami Center
05:28PM 27.5097 -80.3175 233° Southwest 78 90 1,100 -300 Descending Miami Center
05:29PM 27.5028 -80.3383 249° West 72 83 700 -420 Descending Miami Center
05:30PM 27.4983 -80.3547 253° West 72 83 300 -420 Descending Miami Center